Terminal Aerodrome Forecast
Issued by NWS

Current Version | Previous Version | Text Only | Print | Product List | Glossary Off
Versions: 1 2 3 4 5 6 7 8 9 10 11 12 13 14 15 16 17 18

000
FTUS41 KRNK 161040 AAC
TAFLWB
TAF AMD
KLWB 161040Z 1611/1706 33009KT P6SM OVC030
     FM161300 32008KT P6SM SCT035
     FM170300 33004KT P6SM SKC=

USA.gov is the U.S. government's official web portal to all federal, state and local government web resources and services.